sensor_id;sensor_type;location;lat;lon;timestamp;P1;durP1;ratioP1;P2;durP2;ratioP2
47812;SDS011;34221;45.296;9.516;2023-06-04T00:00:02;3.47;;;2.70;;
47812;SDS011;34221;45.296;9.516;2023-06-04T00:00:20;3.63;;;2.90;;
47812;SDS011;34221;45.296;9.516;2023-06-04T00:00:34;3.55;;;2.80;;
47812;SDS011;34221;45.296;9.516;2023-06-04T00:00:49;3.40;;;2.60;;
47812;SDS011;34221;45.296;9.516;2023-06-04T00:01:22;3.72;;;2.80;;
47812;SDS011;34221;45.296;9.516;2023-06-04T00:01:37;3.45;;;2.53;;
47812;SDS011;34221;45.296;9.516;2023-06-04T00:01:52;3.65;;;2.40;;
47812;SDS011;34221;45.296;9.516;2023-06-04T00:02:06;3.57;;;2.60;;
47812;SDS011;34221;45.296;9.516;2023-06-04T00:02:21;3.53;;;2.65;;
47812;SDS011;34221;45.296;9.516;2023-06-04T00:02:37;3.50;;;2.53;;
47812;SDS011;34221;45.296;9.516;2023-06-04T00:02:51;3.45;;;2.65;;
47812;SDS011;34221;45.296;9.516;2023-06-04T00:03:06;3.70;;;2.77;;
47812;SDS011;34221;45.296;9.516;2023-06-04T00:03:21;4.20;;;2.70;;
47812;SDS011;34221;45.296;9.516;2023-06-04T00:03:36;4.15;;;2.67;;
47812;SDS011;34221;45.296;9.516;2023-06-04T00:03:50;3.65;;;2.70;;
47812;SDS011;34221;45.296;9.516;2023-06-04T00:04:05;3.45;;;2.50;;
47812;SDS011;34221;45.296;9.516;2023-06-04T00:04:20;3.83;;;2.70;;
47812;SDS011;34221;45.296;9.516;2023-06-04T00:04:37;4.43;;;2.95;;
47812;SDS011;34221;45.296;9.516;2023-06-04T00:04:52;3.80;;;2.80;;
47812;SDS011;34221;45.296;9.516;2023-06-04T00:05:07;3.72;;;2.95;;
47812;SDS011;34221;45.296;9.516;2023-06-04T00:05:23;3.65;;;2.83;;
47812;SDS011;34221;45.296;9.516;2023-06-04T00:05:39;3.33;;;2.67;;
47812;SDS011;34221;45.296;9.516;2023-06-04T00:05:54;3.85;;;3.00;;
47812;SDS011;34221;45.296;9.516;2023-06-04T00:06:09;3.72;;;2.83;;
47812;SDS011;34221;45.296;9.516;2023-06-04T00:06:24;3.70;;;2.63;;
47812;SDS011;34221;45.296;9.516;2023-06-04T00:06:39;4.13;;;2.58;;
47812;SDS011;34221;45.296;9.516;2023-06-04T00:06:54;4.13;;;2.80;;
47812;SDS011;34221;45.296;9.516;2023-06-04T00:07:08;3.97;;;3.15;;
47812;SDS011;34221;45.296;9.516;2023-06-04T00:07:24;3.83;;;3.00;;
47812;SDS011;34221;45.296;9.516;2023-06-04T00:07:39;3.28;;;2.38;;
47812;SDS011;34221;45.296;9.516;2023-06-04T00:07:54;3.00;;;2.30;;
47812;SDS011;34221;45.296;9.516;2023-06-04T00:08:08;3.20;;;2.58;;
47812;SDS011;34221;45.296;9.516;2023-06-04T00:08:23;3.43;;;2.70;;
47812;SDS011;34221;45.296;9.516;2023-06-04T00:08:38;3.50;;;2.72;;
47812;SDS011;34221;45.296;9.516;2023-06-04T00:08:53;3.60;;;2.50;;
47812;SDS011;34221;45.296;9.516;2023-06-04T00:09:07;3.58;;;2.30;;
47812;SDS011;34221;45.296;9.516;2023-06-04T00:09:22;4.03;;;2.53;;
47812;SDS011;34221;45.296;9.516;2023-06-04T00:09:37;4.00;;;2.67;;
47812;SDS011;34221;45.296;9.516;2023-06-04T00:09:52;3.40;;;2.60;;
47812;SDS011;34221;45.296;9.516;2023-06-04T00:10:07;3.65;;;2.55;;
47812;SDS011;34221;45.296;9.516;2023-06-04T00:10:22;4.40;;;2.90;;
47812;SDS011;34221;45.296;9.516;2023-06-04T00:10:37;3.97;;;2.80;;
47812;SDS011;34221;45.296;9.516;2023-06-04T00:10:54;3.50;;;2.58;;
47812;SDS011;34221;45.296;9.516;2023-06-04T00:11:08;3.57;;;2.60;;
47812;SDS011;34221;45.296;9.516;2023-06-04T00:11:23;3.35;;;2.50;;
47812;SDS011;34221;45.296;9.516;2023-06-04T00:11:38;3.97;;;2.90;;
47812;SDS011;34221;45.296;9.516;2023-06-04T00:11:52;4.30;;;3.03;;
47812;SDS011;34221;45.296;9.516;2023-06-04T00:12:07;3.97;;;2.87;;
47812;SDS011;34221;45.296;9.516;2023-06-04T00:12:22;3.88;;;2.90;;
47812;SDS011;34221;45.296;9.516;2023-06-04T00:12:37;3.55;;;2.63;;
47812;SDS011;34221;45.296;9.516;2023-06-04T00:12:51;3.20;;;2.55;;
47812;SDS011;34221;45.296;9.516;2023-06-04T00:13:06;3.60;;;2.60;;
47812;SDS011;34221;45.296;9.516;2023-06-04T00:13:21;3.93;;;2.73;;
47812;SDS011;34221;45.296;9.516;2023-06-04T00:13:36;3.95;;;2.80;;
47812;SDS011;34221;45.296;9.516;2023-06-04T00:13:50;3.63;;;2.60;;
47812;SDS011;34221;45.296;9.516;2023-06-04T00:14:05;3.35;;;2.53;;
47812;SDS011;34221;45.296;9.516;2023-06-04T00:14:20;3.65;;;2.78;;
47812;SDS011;34221;45.296;9.516;2023-06-04T00:14:35;3.80;;;2.72;;
47812;SDS011;34221;45.296;9.516;2023-06-04T00:14:50;3.37;;;2.50;;
47812;SDS011;34221;45.296;9.516;2023-06-04T00:15:04;3.38;;;2.75;;
47812;SDS011;34221;45.296;9.516;2023-06-04T00:15:20;3.95;;;3.08;;
47812;SDS011;34221;45.296;9.516;2023-06-04T00:15:35;3.38;;;2.53;;
47812;SDS011;34221;45.296;9.516;2023-06-04T00:15:49;3.27;;;2.30;;
47812;SDS011;34221;45.296;9.516;2023-06-04T00:16:04;3.72;;;2.50;;
47812;SDS011;34221;45.296;9.516;2023-06-04T00:16:52;3.33;;;2.28;;
47812;SDS011;34221;45.296;9.516;2023-06-04T00:17:07;3.20;;;2.30;;
47812;SDS011;34221;45.296;9.516;2023-06-04T00:17:23;3.40;;;2.38;;
47812;SDS011;34221;45.296;9.516;2023-06-04T00:17:37;3.38;;;2.38;;
47812;SDS011;34221;45.296;9.516;2023-06-04T00:17:52;3.13;;;2.40;;
47812;SDS011;34221;45.296;9.516;2023-06-04T00:18:07;3.20;;;2.30;;
47812;SDS011;34221;45.296;9.516;2023-06-04T00:18:22;3.13;;;2.20;;
47812;SDS011;34221;45.296;9.516;2023-06-04T00:18:36;3.75;;;2.78;;
47812;SDS011;34221;45.296;9.516;2023-06-04T00:18:51;3.92;;;2.92;;
47812;SDS011;34221;45.296;9.516;2023-06-04T00:19:06;3.67;;;2.77;;
47812;SDS011;34221;45.296;9.516;2023-06-04T00:19:21;3.40;;;2.57;;
47812;SDS011;34221;45.296;9.516;2023-06-04T00:19:37;3.13;;;2.22;;
47812;SDS011;34221;45.296;9.516;2023-06-04T00:19:53;3.47;;;2.35;;
47812;SDS011;34221;45.296;9.516;2023-06-04T00:20:08;3.80;;;2.63;;
47812;SDS011;34221;45.296;9.516;2023-06-04T00:20:23;3.78;;;2.60;;
47812;SDS011;34221;45.296;9.516;2023-06-04T00:20:38;4.05;;;2.53;;
47812;SDS011;34221;45.296;9.516;2023-06-04T00:20:53;4.13;;;2.78;;
47812;SDS011;34221;45.296;9.516;2023-06-04T00:21:08;3.53;;;2.75;;
47812;SDS011;34221;45.296;9.516;2023-06-04T00:21:22;3.97;;;2.88;;
47812;SDS011;34221;45.296;9.516;2023-06-04T00:21:37;3.70;;;2.70;;
47812;SDS011;34221;45.296;9.516;2023-06-04T00:21:52;3.05;;;2.38;;
47812;SDS011;34221;45.296;9.516;2023-06-04T00:22:06;3.33;;;2.60;;
47812;SDS011;34221;45.296;9.516;2023-06-04T00:22:22;3.80;;;3.05;;
47812;SDS011;34221;45.296;9.516;2023-06-04T00:22:37;4.07;;;3.03;;
47812;SDS011;34221;45.296;9.516;2023-06-04T00:22:55;3.85;;;2.67;;
47812;SDS011;34221;45.296;9.516;2023-06-04T00:23:10;3.65;;;2.30;;
47812;SDS011;34221;45.296;9.516;2023-06-04T00:23:25;3.60;;;2.40;;
47812;SDS011;34221;45.296;9.516;2023-06-04T00:23:39;3.22;;;2.47;;
47812;SDS011;34221;45.296;9.516;2023-06-04T00:23:54;3.35;;;2.60;;
47812;SDS011;34221;45.296;9.516;2023-06-04T00:24:09;3.88;;;2.75;;
47812;SDS011;34221;45.296;9.516;2023-06-04T00:24:26;3.80;;;2.60;;
47812;SDS011;34221;45.296;9.516;2023-06-04T00:24:41;3.40;;;2.42;;
47812;SDS011;34221;45.296;9.516;2023-06-04T00:24:55;3.30;;;2.40;;
47812;SDS011;34221;45.296;9.516;2023-06-04T00:25:10;2.92;;;2.20;;
47812;SDS011;34221;45.296;9.516;2023-06-04T00:25:25;3.15;;;2.33;;
47812;SDS011;34221;45.296;9.516;2023-06-04T00:25:39;3.95;;;2.88;;
47812;SDS011;34221;45.296;9.516;2023-06-04T00:25:54;3.73;;;2.83;;
47812;SDS011;34221;45.296;9.516;2023-06-04T00:26:09;3.00;;;2.33;;
47812;SDS011;34221;45.296;9.516;2023-06-04T00:26:24;3.40;;;2.47;;
47812;SDS011;34221;45.296;9.516;2023-06-04T00:26:39;3.78;;;2.53;;
47812;SDS011;34221;45.296;9.516;2023-06-04T00:26:54;4.10;;;2.70;;
47812;SDS011;34221;45.296;9.516;2023-06-04T00:27:09;4.20;;;2.93;;
47812;SDS011;34221;45.296;9.516;2023-06-04T00:27:24;3.88;;;2.85;;
47812;SDS011;34221;45.296;9.516;2023-06-04T00:27:39;3.63;;;2.50;;
47812;SDS011;34221;45.296;9.516;2023-06-04T00:27:53;3.63;;;2.40;;
47812;SDS011;34221;45.296;9.516;2023-06-04T00:28:08;3.83;;;2.65;;
47812;SDS011;34221;45.296;9.516;2023-06-04T00:28:23;3.70;;;2.70;;
47812;SDS011;34221;45.296;9.516;2023-06-04T00:28:39;3.35;;;2.40;;
47812;SDS011;34221;45.296;9.516;2023-06-04T00:28:54;3.13;;;2.20;;
47812;SDS011;34221;45.296;9.516;2023-06-04T00:29:09;3.47;;;2.45;;
47812;SDS011;34221;45.296;9.516;2023-06-04T00:29:24;3.60;;;2.53;;
47812;SDS011;34221;45.296;9.516;2023-06-04T00:29:38;3.20;;;2.50;;
47812;SDS011;34221;45.296;9.516;2023-06-04T00:29:53;3.50;;;2.65;;
47812;SDS011;34221;45.296;9.516;2023-06-04T00:30:08;3.78;;;2.67;;
47812;SDS011;34221;45.296;9.516;2023-06-04T00:30:23;3.47;;;2.50;;
47812;SDS011;34221;45.296;9.516;2023-06-04T00:30:38;3.20;;;2.50;;
47812;SDS011;34221;45.296;9.516;2023-06-04T00:30:53;3.65;;;2.53;;
47812;SDS011;34221;45.296;9.516;2023-06-04T00:31:08;3.97;;;2.65;;
47812;SDS011;34221;45.296;9.516;2023-06-04T00:31:24;3.80;;;2.85;;
47812;SDS011;34221;45.296;9.516;2023-06-04T00:31:39;3.78;;;2.80;;
47812;SDS011;34221;45.296;9.516;2023-06-04T00:31:54;3.95;;;2.88;;
47812;SDS011;34221;45.296;9.516;2023-06-04T00:32:09;3.45;;;2.55;;
47812;SDS011;34221;45.296;9.516;2023-06-04T00:32:23;2.95;;;2.20;;
47812;SDS011;34221;45.296;9.516;2023-06-04T00:32:38;3.05;;;2.30;;
47812;SDS011;34221;45.296;9.516;2023-06-04T00:32:54;3.10;;;2.56;;
47812;SDS011;34221;45.296;9.516;2023-06-04T00:33:08;3.20;;;2.60;;
47812;SDS011;34221;45.296;9.516;2023-06-04T00:33:23;3.25;;;2.50;;
47812;SDS011;34221;45.296;9.516;2023-06-04T00:33:38;3.45;;;2.60;;
47812;SDS011;34221;45.296;9.516;2023-06-04T00:33:53;3.55;;;2.58;;
47812;SDS011;34221;45.296;9.516;2023-06-04T00:34:09;3.83;;;2.50;;
47812;SDS011;34221;45.296;9.516;2023-06-04T00:34:24;3.72;;;2.50;;
47812;SDS011;34221;45.296;9.516;2023-06-04T00:34:39;3.25;;;2.42;;
47812;SDS011;34221;45.296;9.516;2023-06-04T00:34:54;3.15;;;2.40;;
47812;SDS011;34221;45.296;9.516;2023-06-04T00:35:12;3.30;;;2.30;;
47812;SDS011;34221;45.296;9.516;2023-06-04T00:35:27;3.53;;;2.53;;
47812;SDS011;34221;45.296;9.516;2023-06-04T00:35:41;3.78;;;2.70;;
47812;SDS011;34221;45.296;9.516;2023-06-04T00:35:56;4.18;;;2.70;;
47812;SDS011;34221;45.296;9.516;2023-06-04T00:36:11;4.13;;;2.67;;
47812;SDS011;34221;45.296;9.516;2023-06-04T00:36:26;3.63;;;2.60;;
47812;SDS011;34221;45.296;9.516;2023-06-04T00:36:40;3.42;;;2.60;;
47812;SDS011;34221;45.296;9.516;2023-06-04T00:36:55;3.50;;;2.53;;
47812;SDS011;34221;45.296;9.516;2023-06-04T00:37:10;3.45;;;2.50;;
47812;SDS011;34221;45.296;9.516;2023-06-04T00:37:25;4.23;;;2.60;;
47812;SDS011;34221;45.296;9.516;2023-06-04T00:37:40;4.28;;;2.47;;
47812;SDS011;34221;45.296;9.516;2023-06-04T00:37:54;3.53;;;2.33;;
47812;SDS011;34221;45.296;9.516;2023-06-04T00:38:09;3.00;;;2.25;;
47812;SDS011;34221;45.296;9.516;2023-06-04T00:38:24;3.05;;;2.38;;
47812;SDS011;34221;45.296;9.516;2023-06-04T00:38:39;3.22;;;2.30;;
47812;SDS011;34221;45.296;9.516;2023-06-04T00:38:54;3.10;;;2.22;;
47812;SDS011;34221;45.296;9.516;2023-06-04T00:39:09;2.88;;;2.35;;
47812;SDS011;34221;45.296;9.516;2023-06-04T00:39:23;3.60;;;2.78;;
47812;SDS011;34221;45.296;9.516;2023-06-04T00:39:38;3.53;;;2.63;;
47812;SDS011;34221;45.296;9.516;2023-06-04T00:39:53;3.40;;;2.50;;
47812;SDS011;34221;45.296;9.516;2023-06-04T00:40:08;3.92;;;2.72;;
47812;SDS011;34221;45.296;9.516;2023-06-04T00:40:23;3.47;;;2.50;;
47812;SDS011;34221;45.296;9.516;2023-06-04T00:40:38;3.13;;;2.22;;
47812;SDS011;34221;45.296;9.516;2023-06-04T00:40:52;3.35;;;2.40;;
47812;SDS011;34221;45.296;9.516;2023-06-04T00:41:07;3.17;;;2.35;;
47812;SDS011;34221;45.296;9.516;2023-06-04T00:41:22;2.90;;;2.20;;
47812;SDS011;34221;45.296;9.516;2023-06-04T00:41:37;3.22;;;2.50;;
47812;SDS011;34221;45.296;9.516;2023-06-04T00:41:51;3.22;;;2.58;;
47812;SDS011;34221;45.296;9.516;2023-06-04T00:42:06;2.97;;;2.33;;
47812;SDS011;34221;45.296;9.516;2023-06-04T00:42:21;3.00;;;2.30;;
47812;SDS011;34221;45.296;9.516;2023-06-04T00:42:37;3.28;;;2.50;;
47812;SDS011;34221;45.296;9.516;2023-06-04T00:42:52;3.35;;;2.47;;
47812;SDS011;34221;45.296;9.516;2023-06-04T00:43:07;2.97;;;2.30;;
47812;SDS011;34221;45.296;9.516;2023-06-04T00:43:22;2.92;;;2.30;;
47812;SDS011;34221;45.296;9.516;2023-06-04T00:43:39;3.33;;;2.50;;
47812;SDS011;34221;45.296;9.516;2023-06-04T00:43:54;3.80;;;2.70;;
47812;SDS011;34221;45.296;9.516;2023-06-04T00:44:12;3.47;;;2.38;;
47812;SDS011;34221;45.296;9.516;2023-06-04T00:44:27;2.80;;;2.17;;
47812;SDS011;34221;45.296;9.516;2023-06-04T00:44:42;3.30;;;2.30;;
47812;SDS011;34221;45.296;9.516;2023-06-04T00:44:58;3.92;;;2.80;;
47812;SDS011;34221;45.296;9.516;2023-06-04T00:45:13;3.60;;;2.73;;
47812;SDS011;34221;45.296;9.516;2023-06-04T00:45:30;3.53;;;2.58;;
47812;SDS011;34221;45.296;9.516;2023-06-04T00:45:45;3.30;;;2.38;;
47812;SDS011;34221;45.296;9.516;2023-06-04T00:46:00;3.20;;;2.20;;
47812;SDS011;34221;45.296;9.516;2023-06-04T00:46:16;3.20;;;2.38;;
47812;SDS011;34221;45.296;9.516;2023-06-04T00:46:35;3.38;;;2.42;;
47812;SDS011;34221;45.296;9.516;2023-06-04T00:46:50;3.50;;;2.35;;
47812;SDS011;34221;45.296;9.516;2023-06-04T00:47:07;2.83;;;2.10;;
47812;SDS011;34221;45.296;9.516;2023-06-04T00:47:22;2.65;;;2.08;;
47812;SDS011;34221;45.296;9.516;2023-06-04T00:47:37;3.05;;;2.28;;
47812;SDS011;34221;45.296;9.516;2023-06-04T00:47:52;3.23;;;2.33;;
47812;SDS011;34221;45.296;9.516;2023-06-04T00:48:07;3.85;;;2.40;;
47812;SDS011;34221;45.296;9.516;2023-06-04T00:48:22;4.15;;;2.63;;
47812;SDS011;34221;45.296;9.516;2023-06-04T00:48:37;3.92;;;2.63;;
47812;SDS011;34221;45.296;9.516;2023-06-04T00:48:52;3.70;;;2.58;;
47812;SDS011;34221;45.296;9.516;2023-06-04T00:49:08;3.53;;;2.40;;
47812;SDS011;34221;45.296;9.516;2023-06-04T00:49:23;3.25;;;2.20;;
47812;SDS011;34221;45.296;9.516;2023-06-04T00:49:38;3.40;;;2.10;;
47812;SDS011;34221;45.296;9.516;2023-06-04T00:49:54;4.45;;;2.40;;
47812;SDS011;34221;45.296;9.516;2023-06-04T00:50:12;3.58;;;2.30;;
47812;SDS011;34221;45.296;9.516;2023-06-04T00:50:28;3.17;;;2.33;;
47812;SDS011;34221;45.296;9.516;2023-06-04T00:50:42;3.20;;;2.45;;
47812;SDS011;34221;45.296;9.516;2023-06-04T00:50:57;3.03;;;2.30;;
47812;SDS011;34221;45.296;9.516;2023-06-04T00:51:12;3.10;;;2.42;;
47812;SDS011;34221;45.296;9.516;2023-06-04T00:51:27;3.40;;;2.50;;
47812;SDS011;34221;45.296;9.516;2023-06-04T00:51:44;3.40;;;2.40;;
47812;SDS011;34221;45.296;9.516;2023-06-04T00:51:59;3.20;;;2.17;;
47812;SDS011;34221;45.296;9.516;2023-06-04T00:52:15;2.90;;;2.00;;
47812;SDS011;34221;45.296;9.516;2023-06-04T00:52:30;4.80;;;2.38;;
47812;SDS011;34221;45.296;9.516;2023-06-04T00:52:45;4.95;;;2.53;;
47812;SDS011;34221;45.296;9.516;2023-06-04T00:52:59;3.43;;;2.53;;
47812;SDS011;34221;45.296;9.516;2023-06-04T00:53:14;3.50;;;2.63;;
47812;SDS011;34221;45.296;9.516;2023-06-04T00:53:32;3.22;;;2.45;;
47812;SDS011;34221;45.296;9.516;2023-06-04T00:53:48;3.28;;;2.60;;
47812;SDS011;34221;45.296;9.516;2023-06-04T00:54:04;3.47;;;2.20;;
47812;SDS011;34221;45.296;9.516;2023-06-04T00:54:22;3.47;;;2.05;;
47812;SDS011;34221;45.296;9.516;2023-06-04T00:54:38;3.03;;;2.20;;
47812;SDS011;34221;45.296;9.516;2023-06-04T00:54:53;3.30;;;2.20;;
47812;SDS011;34221;45.296;9.516;2023-06-04T00:55:08;3.47;;;2.35;;
47812;SDS011;34221;45.296;9.516;2023-06-04T00:55:24;3.58;;;2.53;;
47812;SDS011;34221;45.296;9.516;2023-06-04T00:55:39;3.47;;;2.30;;
47812;SDS011;34221;45.296;9.516;2023-06-04T00:55:54;3.22;;;2.25;;
47812;SDS011;34221;45.296;9.516;2023-06-04T00:56:09;3.20;;;2.30;;
47812;SDS011;34221;45.296;9.516;2023-06-04T00:56:24;3.10;;;2.30;;
47812;SDS011;34221;45.296;9.516;2023-06-04T00:56:38;3.15;;;2.30;;
47812;SDS011;34221;45.296;9.516;2023-06-04T00:56:54;3.55;;;2.50;;
47812;SDS011;34221;45.296;9.516;2023-06-04T00:57:08;3.40;;;2.53;;
47812;SDS011;34221;45.296;9.516;2023-06-04T00:57:23;3.13;;;2.45;;
47812;SDS011;34221;45.296;9.516;2023-06-04T00:57:38;3.15;;;2.30;;
47812;SDS011;34221;45.296;9.516;2023-06-04T00:57:53;2.97;;;2.20;;
47812;SDS011;34221;45.296;9.516;2023-06-04T00:58:07;3.10;;;2.35;;
47812;SDS011;34221;45.296;9.516;2023-06-04T00:58:23;3.02;;;2.30;;
47812;SDS011;34221;45.296;9.516;2023-06-04T00:58:39;3.28;;;2.47;;
47812;SDS011;34221;45.296;9.516;2023-06-04T00:58:54;3.60;;;2.65;;
47812;SDS011;34221;45.296;9.516;2023-06-04T00:59:08;3.30;;;2.55;;
47812;SDS011;34221;45.296;9.516;2023-06-04T00:59:23;3.13;;;2.50;;
47812;SDS011;34221;45.296;9.516;2023-06-04T00:59:38;3.13;;;2.47;;
47812;SDS011;34221;45.296;9.516;2023-06-04T00:59:55;3.58;;;2.65;;
47812;SDS011;34221;45.296;9.516;2023-06-04T01:00:10;3.72;;;2.80;;
47812;SDS011;34221;45.296;9.516;2023-06-04T01:00:26;3.67;;;2.70;;
47812;SDS011;34221;45.296;9.516;2023-06-04T01:00:43;3.88;;;2.47;;
47812;SDS011;34221;45.296;9.516;2023-06-04T01:00:59;3.28;;;2.38;;
47812;SDS011;34221;45.296;9.516;2023-06-04T01:02:06;2.70;;;2.30;;
47812;SDS011;34221;45.296;9.516;2023-06-04T01:02:26;3.00;;;2.30;;
47812;SDS011;34221;45.296;9.516;2023-06-04T01:02:44;3.08;;;2.28;;
47812;SDS011;34221;45.296;9.516;2023-06-04T01:03:07;3.10;;;2.30;;
47812;SDS011;34221;45.296;9.516;2023-06-04T01:03:27;3.45;;;2.55;;
47812;SDS011;34221;45.296;9.516;2023-06-04T01:03:46;3.25;;;2.35;;
47812;SDS011;34221;45.296;9.516;2023-06-04T01:04:05;3.35;;;2.50;;
47812;SDS011;34221;45.296;9.516;2023-06-04T01:04:41;3.15;;;2.25;;
47812;SDS011;34221;45.296;9.516;2023-06-04T01:05:07;3.50;;;2.30;;
47812;SDS011;34221;45.296;9.516;2023-06-04T01:05:40;3.10;;;2.42;;
47812;SDS011;34221;45.296;9.516;2023-06-04T01:06:21;2.85;;;2.20;;
47812;SDS011;34221;45.296;9.516;2023-06-04T01:06:44;3.38;;;2.40;;
47812;SDS011;34221;45.296;9.516;2023-06-04T01:07:03;3.35;;;2.28;;
47812;SDS011;34221;45.296;9.516;2023-06-04T01:07:18;3.10;;;2.20;;
47812;SDS011;34221;45.296;9.516;2023-06-04T01:07:33;3.45;;;2.47;;
47812;SDS011;34221;45.296;9.516;2023-06-04T01:07:50;3.45;;;2.50;;
47812;SDS011;34221;45.296;9.516;2023-06-04T01:08:05;3.17;;;2.22;;
47812;SDS011;34221;45.296;9.516;2023-06-04T01:08:23;2.63;;;2.05;;
47812;SDS011;34221;45.296;9.516;2023-06-04T01:08:38;2.90;;;2.20;;
47812;SDS011;34221;45.296;9.516;2023-06-04T01:08:57;3.67;;;2.60;;
47812;SDS011;34221;45.296;9.516;2023-06-04T01:09:13;3.60;;;2.50;;
47812;SDS011;34221;45.296;9.516;2023-06-04T01:09:29;3.03;;;2.30;;
47812;SDS011;34221;45.296;9.516;2023-06-04T01:09:47;2.97;;;2.28;;
47812;SDS011;34221;45.296;9.516;2023-06-04T01:10:02;2.78;;;2.17;;
47812;SDS011;34221;45.296;9.516;2023-06-04T01:10:17;2.85;;;2.22;;
47812;SDS011;34221;45.296;9.516;2023-06-04T01:10:32;3.00;;;2.30;;
47812;SDS011;34221;45.296;9.516;2023-06-04T01:10:50;2.83;;;2.20;;
47812;SDS011;34221;45.296;9.516;2023-06-04T01:11:09;2.90;;;2.28;;
47812;SDS011;34221;45.296;9.516;2023-06-04T01:11:34;3.05;;;2.33;;
47812;SDS011;34221;45.296;9.516;2023-06-04T01:11:49;3.10;;;2.00;;
47812;SDS011;34221;45.296;9.516;2023-06-04T01:12:04;3.13;;;2.13;;
47812;SDS011;34221;45.296;9.516;2023-06-04T01:12:20;2.88;;;2.15;;
47812;SDS011;34221;45.296;9.516;2023-06-04T01:12:35;2.70;;;2.20;;
47812;SDS011;34221;45.296;9.516;2023-06-04T01:12:52;2.95;;;2.28;;
47812;SDS011;34221;45.296;9.516;2023-06-04T01:13:07;3.00;;;2.22;;
47812;SDS011;34221;45.296;9.516;2023-06-04T01:13:22;4.00;;;2.60;;
47812;SDS011;34221;45.296;9.516;2023-06-04T01:13:38;4.38;;;2.85;;
47812;SDS011;34221;45.296;9.516;2023-06-04T01:13:53;3.30;;;2.53;;
47812;SDS011;34221;45.296;9.516;2023-06-04T01:14:09;3.03;;;2.40;;
47812;SDS011;34221;45.296;9.516;2023-06-04T01:14:24;3.00;;;2.42;;
47812;SDS011;34221;45.296;9.516;2023-06-04T01:14:40;2.77;;;2.20;;
47812;SDS011;34221;45.296;9.516;2023-06-04T01:14:55;3.05;;;2.22;;
47812;SDS011;34221;45.296;9.516;2023-06-04T01:15:10;3.08;;;2.15;;
47812;SDS011;34221;45.296;9.516;2023-06-04T01:15:25;2.83;;;2.13;;
47812;SDS011;34221;45.296;9.516;2023-06-04T01:15:40;3.17;;;2.27;;
47812;SDS011;34221;45.296;9.516;2023-06-04T01:15:55;3.37;;;2.20;;
47812;SDS011;34221;45.296;9.516;2023-06-04T01:16:10;3.38;;;2.40;;
47812;SDS011;34221;45.296;9.516;2023-06-04T01:16:29;3.50;;;2.53;;
47812;SDS011;34221;45.296;9.516;2023-06-04T01:16:50;3.33;;;2.33;;
47812;SDS011;34221;45.296;9.516;2023-06-04T01:17:26;3.40;;;2.50;;
47812;SDS011;34221;45.296;9.516;2023-06-04T01:17:53;3.38;;;2.60;;
47812;SDS011;34221;45.296;9.516;2023-06-04T01:18:23;3.28;;;2.25;;
47812;SDS011;34221;45.296;9.516;2023-06-04T01:18:43;3.00;;;2.03;;
47812;SDS011;34221;45.296;9.516;2023-06-04T01:18:58;3.72;;;2.33;;
47812;SDS011;34221;45.296;9.516;2023-06-04T01:20:33;3.03;;;2.35;;
47812;SDS011;34221;45.296;9.516;2023-06-04T01:20:59;3.78;;;2.70;;
47812;SDS011;34221;45.296;9.516;2023-06-04T01:21:22;3.53;;;2.45;;
47812;SDS011;34221;45.296;9.516;2023-06-04T01:21:37;3.13;;;2.33;;
47812;SDS011;34221;45.296;9.516;2023-06-04T01:21:53;3.60;;;2.30;;
47812;SDS011;34221;45.296;9.516;2023-06-04T01:22:25;3.78;;;2.45;;
47812;SDS011;34221;45.296;9.516;2023-06-04T01:23:21;3.45;;;2.50;;
47812;SDS011;34221;45.296;9.516;2023-06-04T01:23:51;3.70;;;2.67;;
47812;SDS011;34221;45.296;9.516;2023-06-04T01:24:15;2.90;;;2.10;;
47812;SDS011;34221;45.296;9.516;2023-06-04T01:24:34;2.47;;;1.80;;
47812;SDS011;34221;45.296;9.516;2023-06-04T01:24:52;3.23;;;2.27;;
47812;SDS011;34221;45.296;9.516;2023-06-04T01:25:41;3.75;;;2.40;;
47812;SDS011;34221;45.296;9.516;2023-06-04T01:25:58;2.72;;;2.13;;
47812;SDS011;34221;45.296;9.516;2023-06-04T01:26:16;3.30;;;2.17;;
47812;SDS011;34221;45.296;9.516;2023-06-04T01:26:31;3.58;;;2.20;;
47812;SDS011;34221;45.296;9.516;2023-06-04T01:26:46;3.20;;;2.27;;
47812;SDS011;34221;45.296;9.516;2023-06-04T01:27:01;3.83;;;2.67;;
47812;SDS011;34221;45.296;9.516;2023-06-04T01:27:18;3.25;;;2.30;;
47812;SDS011;34221;45.296;9.516;2023-06-04T01:27:33;2.72;;;2.15;;
47812;SDS011;34221;45.296;9.516;2023-06-04T01:27:50;3.28;;;2.28;;
47812;SDS011;34221;45.296;9.516;2023-06-04T01:28:10;3.25;;;2.20;;
47812;SDS011;34221;45.296;9.516;2023-06-04T01:28:26;3.25;;;2.35;;
47812;SDS011;34221;45.296;9.516;2023-06-04T01:28:41;3.17;;;2.30;;
47812;SDS011;34221;45.296;9.516;2023-06-04T01:28:57;2.83;;;2.10;;
47812;SDS011;34221;45.296;9.516;2023-06-04T01:29:13;3.17;;;2.33;;
47812;SDS011;34221;45.296;9.516;2023-06-04T01:29:28;3.40;;;2.40;;
47812;SDS011;34221;45.296;9.516;2023-06-04T01:29:44;2.97;;;2.10;;
47812;SDS011;34221;45.296;9.516;2023-06-04T01:29:59;3.10;;;2.20;;
47812;SDS011;34221;45.296;9.516;2023-06-04T01:30:14;3.10;;;2.25;;
47812;SDS011;34221;45.296;9.516;2023-06-04T01:30:31;3.38;;;2.50;;
47812;SDS011;34221;45.296;9.516;2023-06-04T01:30:50;4.28;;;3.17;;
47812;SDS011;34221;45.296;9.516;2023-06-04T01:31:05;3.60;;;2.72;;
47812;SDS011;34221;45.296;9.516;2023-06-04T01:31:23;3.15;;;2.47;;
47812;SDS011;34221;45.296;9.516;2023-06-04T01:31:39;2.75;;;2.30;;
47812;SDS011;34221;45.296;9.516;2023-06-04T01:31:54;2.72;;;2.10;;
47812;SDS011;34221;45.296;9.516;2023-06-04T01:32:10;3.10;;;2.33;;
47812;SDS011;34221;45.296;9.516;2023-06-04T01:32:25;3.72;;;2.70;;
47812;SDS011;34221;45.296;9.516;2023-06-04T01:32:41;3.45;;;2.40;;
47812;SDS011;34221;45.296;9.516;2023-06-04T01:32:56;2.72;;;2.00;;
47812;SDS011;34221;45.296;9.516;2023-06-04T01:33:13;2.50;;;1.90;;
47812;SDS011;34221;45.296;9.516;2023-06-04T01:33:29;2.97;;;2.17;;
47812;SDS011;34221;45.296;9.516;2023-06-04T01:33:45;3.13;;;2.22;;
47812;SDS011;34221;45.296;9.516;2023-06-04T01:34:00;2.70;;;1.90;;
47812;SDS011;34221;45.296;9.516;2023-06-04T01:34:16;2.75;;;2.00;;
47812;SDS011;34221;45.296;9.516;2023-06-04T01:34:30;3.03;;;2.25;;
47812;SDS011;34221;45.296;9.516;2023-06-04T01:34:46;3.35;;;2.50;;
47812;SDS011;34221;45.296;9.516;2023-06-04T01:35:01;3.33;;;2.50;;
47812;SDS011;34221;45.296;9.516;2023-06-04T01:35:16;3.50;;;2.42;;
47812;SDS011;34221;45.296;9.516;2023-06-04T01:35:30;4.20;;;2.42;;
47812;SDS011;34221;45.296;9.516;2023-06-04T01:35:45;4.35;;;2.38;;
47812;SDS011;34221;45.296;9.516;2023-06-04T01:36:00;3.75;;;2.40;;
47812;SDS011;34221;45.296;9.516;2023-06-04T01:36:15;3.97;;;2.75;;
47812;SDS011;34221;45.296;9.516;2023-06-04T01:36:30;3.90;;;2.73;;
47812;SDS011;34221;45.296;9.516;2023-06-04T01:36:46;2.95;;;2.20;;
47812;SDS011;34221;45.296;9.516;2023-06-04T01:37:01;3.20;;;2.40;;
47812;SDS011;34221;45.296;9.516;2023-06-04T01:37:16;3.25;;;2.47;;
47812;SDS011;34221;45.296;9.516;2023-06-04T01:37:32;3.20;;;2.25;;
47812;SDS011;34221;45.296;9.516;2023-06-04T01:37:48;3.40;;;2.35;;
47812;SDS011;34221;45.296;9.516;2023-06-04T01:38:03;3.40;;;2.42;;
47812;SDS011;34221;45.296;9.516;2023-06-04T01:38:19;3.40;;;2.50;;
47812;SDS011;34221;45.296;9.516;2023-06-04T01:38:34;3.25;;;2.58;;
47812;SDS011;34221;45.296;9.516;2023-06-04T01:38:48;3.10;;;2.60;;
47812;SDS011;34221;45.296;9.516;2023-06-04T01:39:03;3.10;;;2.50;;
47812;SDS011;34221;45.296;9.516;2023-06-04T01:39:18;2.88;;;2.20;;
47812;SDS011;34221;45.296;9.516;2023-06-04T01:39:32;3.10;;;2.25;;
47812;SDS011;34221;45.296;9.516;2023-06-04T01:39:47;3.58;;;2.45;;
47812;SDS011;34221;45.296;9.516;2023-06-04T01:40:02;3.90;;;2.67;;
47812;SDS011;34221;45.296;9.516;2023-06-04T01:40:18;3.58;;;2.42;;
47812;SDS011;34221;45.296;9.516;2023-06-04T01:40:34;3.72;;;2.58;;